Time;durP1;ratioP1;P1;durP2;ratioP2;P2;SDS_P1;SDS_P2;PMS_P1;PMS_P2;Temp;Humidity;BMP_temperature;BMP_pressure;BME280_temperature;BME280_humidity;BME280_pressure;Samples;Min_cycle;Max_cycle;Signal;HPM_P1;HPM_P2
2022/12/04 00:00:10;;;;;;;29.88;12.15;;;7.60;92.10;;;;;;5091780;28;20028;-54
2022/12/04 00:02:36;;;;;;;31.70;12.88;;;7.60;92.10;;;;;;5091364;28;20065;-54
2022/12/04 00:05:02;;;;;;;34.00;13.23;;;7.60;92.10;;;;;;5108472;28;20023;-55
2022/12/04 00:07:28;;;;;;;35.67;13.20;;;7.60;92.10;;;;;;5091423;28;20027;-55
2022/12/04 00:09:53;;;;;;;32.58;11.77;;;7.60;92.10;;;;;;5126932;28;20111;-55
2022/12/04 00:12:19;;;;;;;26.40;12.77;;;7.60;92.20;;;;;;5126722;28;20031;-55
2022/12/04 00:14:45;;;;;;;28.13;12.95;;;7.60;92.20;;;;;;5091442;28;20031;-54
2022/12/04 00:17:10;;;;;;;26.60;12.77;;;7.50;92.10;;;;;;5091506;28;20036;-54
2022/12/04 00:19:36;;;;;;;30.25;13.73;;;7.50;92.20;;;;;;5125706;28;20016;-54
2022/12/04 00:22:01;;;;;;;25.13;11.70;;;7.50;92.20;;;;;;5126442;28;20027;-54
2022/12/04 00:24:27;;;;;;;29.95;12.45;;;7.50;92.20;;;;;;5107909;28;20032;-55
2022/12/04 00:26:52;;;;;;;27.83;13.35;;;7.50;92.20;;;;;;5107887;28;20079;-55
2022/12/04 00:29:18;;;;;;;36.65;12.70;;;7.50;92.20;;;;;;5108085;28;20019;-55
2022/12/04 00:31:44;;;;;;;27.67;12.70;;;7.50;92.20;;;;;;5126259;28;20091;-55
2022/12/04 00:34:09;;;;;;;32.50;13.43;;;7.50;92.20;;;;;;5090945;28;20028;-55
2022/12/04 00:36:35;;;;;;;26.30;13.25;;;7.50;92.30;;;;;;5090840;28;20044;-55
2022/12/04 00:39:00;;;;;;;34.15;12.95;;;7.50;92.30;;;;;;5126020;28;20035;-55
2022/12/04 00:41:27;;;;;;;26.73;12.38;;;7.50;92.30;;;;;;5107571;28;20032;-55
2022/12/04 00:43:53;;;;;;;25.33;12.70;;;7.50;92.20;;;;;;5126025;28;20034;-55
2022/12/04 00:46:18;;;;;;;26.00;13.45;;;7.50;92.20;;;;;;5090922;28;20028;-55
2022/12/04 00:48:44;;;;;;;31.17;13.20;;;7.50;92.20;;;;;;5125780;28;20031;-55
2022/12/04 00:51:15;;;;;;;26.98;12.52;;;7.40;92.20;;;;;;5090851;28;20051;-54
2022/12/04 00:53:40;;;;;;;28.48;13.70;;;7.50;92.20;;;;;;5107860;28;20019;-54
2022/12/04 00:56:13;;;;;;;29.90;12.48;;;7.50;92.30;;;;;;5090608;28;20027;-54
2022/12/04 00:58:39;;;;;;;26.20;12.70;;;7.40;92.20;;;;;;5107448;28;20049;-54
2022/12/04 01:01:09;;;;;;;30.95;13.40;;;7.50;92.30;;;;;;5107320;28;20031;-54
2022/12/04 01:03:35;;;;;;;26.90;12.77;;;7.40;92.20;;;;;;5125928;28;20032;-55
2022/12/04 01:06:02;;;;;;;25.60;12.43;;;7.40;92.50;;;;;;5090325;28;20115;-55
2022/12/04 01:08:28;;;;;;;24.15;13.25;;;7.40;92.20;;;;;;5125633;28;20042;-55
2022/12/04 01:10:53;;;;;;;27.15;13.35;;;7.50;92.50;;;;;;5107425;28;20091;-55
2022/12/04 01:13:19;;;;;;;25.52;13.07;;;7.40;92.20;;;;;;5107333;28;20027;-54
2022/12/04 01:15:46;;;;;;;27.60;13.65;;;7.40;92.10;;;;;;5090366;28;20381;-54
2022/12/04 01:18:12;;;;;;;25.88;12.93;;;7.40;92.20;;;;;;5125581;28;20465;-55
2022/12/04 01:20:37;;;;;;;21.05;12.15;;;7.40;92.20;;;;;;5106946;28;20031;-55
2022/12/04 01:23:03;;;;;;;26.42;12.80;;;7.40;92.20;;;;;;5107046;28;20023;-54
2022/12/04 01:25:29;;;;;;;24.55;13.95;;;7.40;92.20;;;;;;5125352;28;20016;-55
2022/12/04 01:27:54;;;;;;;28.60;13.27;;;7.40;92.20;;;;;;5107365;28;20376;-55
2022/12/04 01:30:20;;;;;;;27.02;13.48;;;7.40;92.20;;;;;;5123642;28;20127;-54
2022/12/04 01:32:45;;;;;;;25.05;13.43;;;7.40;92.20;;;;;;5107138;28;20032;-55
2022/12/04 01:35:11;;;;;;;28.00;12.75;;;7.40;92.20;;;;;;5125204;28;20034;-55
2022/12/04 01:37:36;;;;;;;21.95;12.30;;;7.40;92.20;;;;;;5125401;28;20051;-54
2022/12/04 01:40:02;;;;;;;27.88;13.18;;;7.40;92.20;;;;;;5125130;28;20110;-54
2022/12/04 01:42:28;;;;;;;26.27;13.57;;;7.40;92.20;;;;;;5089761;28;20039;-54
2022/12/04 01:45:31;;;;;;;31.58;13.38;;;7.40;92.20;;;;;;5106959;28;20084;-54
2022/12/04 01:48:01;;;;;;;27.35;13.05;;;7.40;92.30;;;;;;5125311;28;20028;-55
2022/12/04 01:50:27;;;;;;;24.35;13.82;;;7.40;92.20;;;;;;5089894;28;20495;-54
2022/12/04 01:52:52;;;;;;;24.98;13.40;;;7.40;92.20;;;;;;5106922;28;20020;-55
2022/12/04 01:55:18;;;;;;;22.38;12.63;;;7.30;92.20;;;;;;5106876;28;20354;-54
2022/12/04 01:57:45;;;;;;;24.95;12.50;;;7.30;92.20;;;;;;5090166;28;20529;-55
2022/12/04 02:00:12;;;;;;;20.25;13.02;;;7.30;92.20;;;;;;5125175;28;20031;-54
2022/12/04 02:02:40;;;;;;;26.08;13.65;;;7.30;92.30;;;;;;5125120;28;20032;-54
2022/12/04 02:05:08;;;;;;;23.33;12.48;;;7.30;92.60;;;;;;5106884;28;20040;-54
2022/12/04 02:07:33;;;;;;;21.40;12.35;;;7.30;92.30;;;;;;5123471;28;20051;-54
2022/12/04 02:10:05;;;;;;;25.95;13.73;;;7.30;92.30;;;;;;5090048;28;20048;-54
2022/12/04 02:12:33;;;;;;;21.85;12.55;;;7.30;92.30;;;;;;5091470;28;20047;-54
2022/12/04 02:15:30;;;;;;;23.60;13.63;;;7.30;92.30;;;;;;5124851;28;20465;-54
2022/12/04 02:18:37;;;;;;;19.88;12.73;;;7.30;92.20;;;;;;5075849;28;20054;-55
2022/12/04 02:21:11;;;;;;;25.25;12.75;;;7.30;92.20;;;;;;5083737;28;20048;-55
2022/12/04 02:24:14;;;;;;;30.07;13.93;;;7.30;92.20;;;;;;5106954;28;20113;-54
2022/12/04 02:26:43;;;;;;;23.88;13.27;;;7.30;92.30;;;;;;5125439;28;20040;-55
2022/12/04 02:29:20;;;;;;;20.67;13.18;;;7.30;92.30;;;;;;5108395;28;20051;-54
2022/12/04 02:31:55;;;;;;;24.20;14.13;;;7.30;92.30;;;;;;5125968;28;20036;-54
2022/12/04 02:34:40;;;;;;;24.42;13.75;;;7.30;92.30;;;;;;5125106;28;20030;-55
2022/12/04 02:37:18;;;;;;;22.48;12.85;;;7.20;92.30;;;;;;5106508;28;20035;-55
2022/12/04 02:39:50;;;;;;;20.63;13.32;;;7.20;92.30;;;;;;5090736;28;20091;-55
2022/12/04 02:42:57;;;;;;;20.48;12.77;;;7.20;92.30;;;;;;5091510;28;20031;-55
2022/12/04 02:45:26;;;;;;;21.35;13.40;;;7.20;92.30;;;;;;5097338;28;20040;-54
2022/12/04 02:47:52;;;;;;;31.95;14.13;;;7.30;92.30;;;;;;5093071;28;20023;-55
2022/12/04 02:50:18;;;;;;;24.35;14.23;;;7.20;92.30;;;;;;5110355;28;20084;-54
2022/12/04 02:52:50;;;;;;;28.85;13.48;;;7.20;92.30;;;;;;5093220;28;20065;-55
2022/12/04 02:55:20;;;;;;;20.90;13.70;;;7.20;92.30;;;;;;5093441;28;20028;-55
2022/12/04 02:57:48;;;;;;;22.98;13.57;;;7.20;92.30;;;;;;5093593;28;20035;-55
2022/12/04 03:00:14;;;;;;;24.80;13.82;;;7.20;92.30;;;;;;5092740;28;20027;-55
2022/12/04 03:02:47;;;;;;;23.65;13.25;;;7.20;92.40;;;;;;5109999;28;20024;-55
2022/12/04 03:05:15;;;;;;;23.67;14.50;;;7.20;92.30;;;;;;5110169;28;20016;-54
2022/12/04 03:07:51;;;;;;;22.55;13.30;;;7.20;92.40;;;;;;5092770;28;20198;-54
2022/12/04 03:10:28;;;;;;;25.50;14.07;;;7.20;92.40;;;;;;5110626;28;20083;-54
2022/12/04 03:12:55;;;;;;;21.45;14.48;;;7.20;92.40;;;;;;5092994;28;20054;-54
2022/12/04 03:15:36;;;;;;;24.67;13.95;;;7.20;92.40;;;;;;5109328;28;20031;-54
2022/12/04 03:18:09;;;;;;;23.25;13.30;;;7.20;92.40;;;;;;5093441;28;20047;-54
2022/12/04 03:20:35;;;;;;;19.73;12.90;;;7.20;92.40;;;;;;5126194;28;20032;-54
2022/12/04 03:23:19;;;;;;;20.77;12.95;;;7.20;92.40;;;;;;5092486;28;20059;-55
2022/12/04 03:26:01;;;;;;;23.52;13.43;;;7.20;92.40;;;;;;5093589;28;20020;-54
2022/12/04 03:28:32;;;;;;;24.20;13.75;;;7.20;92.40;;;;;;5093697;28;20102;-54
2022/12/04 03:30:59;;;;;;;21.02;14.40;;;7.20;92.40;;;;;;5092836;28;20028;-54
2022/12/04 03:33:44;;;;;;;22.40;13.82;;;7.20;92.40;;;;;;5092623;28;20040;-54
2022/12/04 03:36:25;;;;;;;31.02;14.68;;;7.10;92.40;;;;;;5093564;28;20038;-54
2022/12/04 03:39:04;;;;;;;22.40;14.07;;;7.20;92.50;;;;;;5093173;28;20032;-54
2022/12/04 03:41:57;;;;;;;22.63;14.32;;;7.20;92.40;;;;;;5092700;28;20081;-55
2022/12/04 03:44:49;;;;;;;22.27;14.05;;;7.20;92.40;;;;;;5124313;28;20036;-54
2022/12/04 03:47:17;;;;;;;23.13;13.65;;;7.20;92.40;;;;;;5126790;28;20059;-54
2022/12/04 03:49:50;;;;;;;24.38;14.13;;;7.20;92.40;;;;;;5092248;28;20092;-54
2022/12/04 03:52:33;;;;;;;22.30;13.80;;;7.10;92.40;;;;;;5092053;28;20080;-54
2022/12/04 03:55:08;;;;;;;20.20;13.80;;;7.10;92.50;;;;;;5093512;28;20030;-54
2022/12/04 03:57:37;;;;;;;20.58;13.65;;;7.10;92.40;;;;;;5093080;28;20444;-55
2022/12/04 04:00:08;;;;;;;20.73;13.82;;;7.10;92.40;;;;;;5091856;28;20084;-54
2022/12/04 04:02:38;;;;;;;26.27;13.38;;;7.10;92.40;;;;;;5108843;28;20027;-54
2022/12/04 04:05:05;;;;;;;24.60;13.35;;;7.10;92.40;;;;;;5108443;28;20024;-55
2022/12/04 04:07:48;;;;;;;22.67;14.52;;;7.10;92.40;;;;;;5091899;28;20091;-54
2022/12/04 04:10:15;;;;;;;22.88;13.70;;;7.10;92.40;;;;;;5092558;28;20023;-54
2022/12/04 04:24:12;;;;;;;22.67;13.90;;;7.10;92.40;;;;;;5091714;28;20036;-54
2022/12/04 04:26:34;;;;;;;20.35;13.23;;;7.10;92.50;;;;;;5096827;28;20030;-54
2022/12/04 04:28:59;;;;;;;20.63;13.30;;;7.10;92.50;;;;;;5107826;28;20588;-54
2022/12/04 04:31:31;;;;;;;20.63;13.75;;;7.10;92.50;;;;;;5108097;28;20059;-55
2022/12/04 04:34:10;;;;;;;20.40;13.52;;;7.10;92.50;;;;;;5126562;28;20044;-55
2022/12/04 04:36:41;;;;;;;22.23;14.38;;;7.10;92.50;;;;;;5108647;28;20032;-54
2022/12/04 04:39:13;;;;;;;21.02;14.07;;;7.10;92.50;;;;;;5107783;28;20028;-54
2022/12/04 04:41:53;;;;;;;21.60;14.30;;;7.10;92.50;;;;;;5107937;28;20115;-54
2022/12/04 04:44:24;;;;;;;24.42;14.70;;;7.10;92.50;;;;;;5092452;28;20035;-55
2022/12/04 04:46:55;;;;;;;22.55;14.10;;;7.10;92.50;;;;;;5091224;28;20027;-54
2022/12/04 04:49:22;;;;;;;22.38;13.15;;;7.10;92.50;;;;;;5091104;28;20027;-54
2022/12/04 04:51:47;;;;;;;24.20;13.10;;;7.10;92.50;;;;;;5090898;28;20051;-55
2022/12/04 04:54:13;;;;;;;23.00;14.48;;;7.10;92.50;;;;;;5107570;28;20027;-55
2022/12/04 04:56:42;;;;;;;18.00;12.80;;;7.00;92.50;;;;;;5090671;28;20485;-55
2022/12/04 04:59:08;;;;;;;23.83;14.45;;;7.00;92.50;;;;;;5107334;28;20031;-55
2022/12/04 05:01:33;;;;;;;20.30;13.23;;;7.10;92.60;;;;;;5107642;28;20039;-55
2022/12/04 05:04:00;;;;;;;19.20;13.98;;;7.00;92.50;;;;;;5107474;28;20016;-55
2022/12/04 05:06:25;;;;;;;21.98;13.90;;;7.10;92.50;;;;;;5108419;28;20039;-54
2022/12/04 05:08:51;;;;;;;19.83;13.73;;;7.00;92.50;;;;;;5126552;28;20023;-55
2022/12/04 05:11:16;;;;;;;21.50;14.13;;;7.00;92.50;;;;;;5125794;28;20032;-55
2022/12/04 05:13:42;;;;;;;20.83;13.85;;;7.00;92.50;;;;;;5125859;28;20032;-55
2022/12/04 05:16:10;;;;;;;18.40;13.15;;;7.10;92.80;;;;;;5107305;28;20031;-54
2022/12/04 05:18:35;;;;;;;20.35;13.55;;;7.00;92.50;;;;;;5107243;28;20047;-55
2022/12/04 05:21:05;;;;;;;20.35;12.88;;;7.00;92.50;;;;;;5107341;28;20045;-55
2022/12/04 05:23:31;;;;;;;23.88;14.00;;;7.00;92.50;;;;;;5124171;28;20027;-55
2022/12/04 05:26:00;;;;;;;19.42;14.15;;;7.00;92.50;;;;;;5090314;28;20512;-54
2022/12/04 05:28:26;;;;;;;22.02;13.18;;;7.00;92.50;;;;;;5107022;28;20039;-54
2022/12/04 05:30:56;;;;;;;21.95;13.45;;;7.00;92.60;;;;;;5090039;28;20383;-54
2022/12/04 05:33:22;;;;;;;18.75;13.23;;;7.00;92.60;;;;;;5090181;28;20050;-54
2022/12/04 05:36:01;;;;;;;20.10;13.43;;;7.00;92.60;;;;;;5090239;28;20099;-54
2022/12/04 05:38:26;;;;;;;19.27;12.80;;;7.00;92.60;;;;;;5106933;28;20031;-55
2022/12/04 05:40:52;;;;;;;17.65;12.90;;;7.00;92.60;;;;;;5106783;28;20063;-55
2022/12/04 05:43:17;;;;;;;20.52;13.55;;;7.00;92.60;;;;;;5090164;28;20030;-54
2022/12/04 05:45:43;;;;;;;20.55;13.68;;;7.00;92.60;;;;;;5106792;28;20338;-54
2022/12/04 05:48:09;;;;;;;20.95;12.82;;;7.00;92.70;;;;;;5107326;28;20044;-55
2022/12/04 05:50:34;;;;;;;18.20;11.63;;;7.00;92.70;;;;;;5107197;28;20038;-54
2022/12/04 05:53:00;;;;;;;19.10;13.10;;;7.00;92.70;;;;;;5107204;28;20024;-54
2022/12/04 05:55:25;;;;;;;19.98;12.90;;;7.00;92.70;;;;;;5125106;28;20112;-56
2022/12/04 05:57:51;;;;;;;20.77;12.77;;;7.00;92.70;;;;;;5106722;28;20035;-55
2022/12/04 06:00:17;;;;;;;17.95;13.10;;;7.00;92.70;;;;;;5123420;28;20042;-54
2022/12/04 06:02:42;;;;;;;19.67;12.57;;;7.00;92.70;;;;;;5125185;28;20024;-55
2022/12/04 06:05:08;;;;;;;19.63;12.80;;;7.00;92.70;;;;;;5106930;28;20024;-55
2022/12/04 06:07:33;;;;;;;20.40;13.77;;;7.00;92.70;;;;;;5089999;28;20361;-54
2022/12/04 06:09:59;;;;;;;20.33;13.10;;;7.00;92.80;;;;;;5090392;28;20114;-54
2022/12/04 06:12:24;;;;;;;22.27;13.07;;;7.00;92.80;;;;;;5107408;28;20034;-55
2022/12/04 06:14:50;;;;;;;17.25;12.57;;;7.00;92.80;;;;;;5106588;28;20118;-55
2022/12/04 06:17:15;;;;;;;18.63;12.60;;;7.00;92.80;;;;;;5125894;28;20027;-55
2022/12/04 06:19:41;;;;;;;19.95;13.40;;;7.00;92.80;;;;;;5110746;28;20072;-55
2022/12/04 06:22:06;;;;;;;20.90;13.23;;;7.00;92.80;;;;;;5129111;28;20380;-54
2022/12/04 06:24:32;;;;;;;17.58;12.73;;;7.00;92.80;;;;;;5128902;28;20023;-54
2022/12/04 06:26:57;;;;;;;20.98;13.20;;;7.00;92.80;;;;;;5128854;28;20034;-55
2022/12/04 06:29:23;;;;;;;18.05;12.82;;;7.00;92.80;;;;;;5093428;28;20466;-54
2022/12/04 06:31:49;;;;;;;22.65;13.57;;;7.00;92.80;;;;;;5127281;28;20063;-55
2022/12/04 06:34:14;;;;;;;20.58;12.75;;;7.00;92.80;;;;;;5110357;28;20036;-54
2022/12/04 06:36:40;;;;;;;19.70;12.75;;;7.00;92.90;;;;;;5128795;28;20020;-55
2022/12/04 06:39:05;;;;;;;19.30;12.57;;;7.00;92.90;;;;;;5110288;28;20103;-54
2022/12/04 06:41:31;;;;;;;20.48;13.10;;;7.00;92.80;;;;;;5093175;28;20418;-54
2022/12/04 06:43:56;;;;;;;17.77;13.02;;;7.00;92.80;;;;;;5110146;28;20074;-54
2022/12/04 06:46:27;;;;;;;21.08;13.85;;;7.00;92.80;;;;;;5109984;28;20045;-54
2022/12/04 06:48:54;;;;;;;21.17;12.80;;;7.10;92.80;;;;;;5109901;28;20126;-54
2022/12/04 06:51:27;;;;;;;21.08;13.85;;;7.00;93.00;;;;;;5109835;28;20027;-54
2022/12/04 06:53:53;;;;;;;17.88;13.02;;;7.00;92.70;;;;;;5109943;28;20036;-54
2022/12/04 06:56:21;;;;;;;18.73;12.80;;;7.10;92.80;;;;;;5109820;28;20110;-54
2022/12/04 06:58:48;;;;;;;18.58;13.07;;;7.00;92.80;;;;;;5092979;28;20388;-55
2022/12/04 07:01:15;;;;;;;18.80;12.77;;;7.10;92.80;;;;;;5128158;28;20031;-55
2022/12/04 07:03:41;;;;;;;19.60;13.80;;;7.00;92.80;;;;;;5109956;28;20019;-54
2022/12/04 07:06:21;;;;;;;21.33;13.15;;;7.10;92.80;;;;;;5092859;28;20065;-55
2022/12/04 07:08:48;;;;;;;18.35;13.68;;;7.00;92.80;;;;;;5128080;28;20027;-54
2022/12/04 07:11:14;;;;;;;18.08;12.48;;;7.00;92.80;;;;;;5109496;28;20465;-54
2022/12/04 07:13:39;;;;;;;17.67;12.32;;;7.00;92.80;;;;;;5092649;28;20035;-54
2022/12/04 07:16:06;;;;;;;21.20;13.30;;;7.00;92.80;;;;;;5127883;28;20127;-54
2022/12/04 07:18:31;;;;;;;18.77;12.18;;;7.00;92.80;;;;;;5126515;28;20034;-54
2022/12/04 07:20:57;;;;;;;19.40;12.80;;;7.00;92.80;;;;;;5109364;28;20398;-55
2022/12/04 07:23:22;;;;;;;19.00;13.38;;;7.00;92.80;;;;;;5092602;28;20020;-54
2022/12/04 07:25:48;;;;;;;17.40;12.63;;;7.00;92.80;;;;;;5109187;28;20059;-54
2022/12/04 07:28:13;;;;;;;19.00;13.30;;;7.00;92.80;;;;;;5127336;28;20155;-55
2022/12/04 07:30:39;;;;;;;18.95;13.15;;;7.00;92.80;;;;;;5092333;28;20053;-54
2022/12/04 07:33:04;;;;;;;17.88;12.60;;;7.00;92.80;;;;;;5127676;28;20490;-55
2022/12/04 07:35:30;;;;;;;19.88;13.18;;;7.00;92.80;;;;;;5092193;28;20509;-54
2022/12/04 07:37:56;;;;;;;21.30;11.88;;;7.10;92.80;;;;;;5127614;28;20023;-52
2022/12/04 07:40:21;;;;;;;18.75;12.85;;;7.10;92.80;;;;;;5108813;28;20024;-55
2022/12/04 07:42:47;;;;;;;17.83;12.85;;;7.10;92.80;;;;;;5109204;28;20128;-55
2022/12/04 07:45:12;;;;;;;17.45;12.25;;;7.10;92.90;;;;;;5109212;28;20168;-54
2022/12/04 07:47:38;;;;;;;17.33;12.80;;;7.00;92.80;;;;;;5108785;28;20422;-55
2022/12/04 07:50:04;;;;;;;17.52;12.90;;;7.10;92.80;;;;;;5127263;28;20019;-54
2022/12/04 07:52:30;;;;;;;17.52;12.80;;;7.10;92.90;;;;;;5108650;28;20042;-54
2022/12/04 07:54:56;;;;;;;17.92;13.02;;;7.10;92.90;;;;;;5127419;28;20027;-54
2022/12/04 07:57:21;;;;;;;17.58;13.55;;;7.10;92.90;;;;;;5108631;28;20174;-54
2022/12/04 07:59:47;;;;;;;17.58;13.20;;;7.10;92.90;;;;;;5125739;28;20485;-55
2022/12/04 08:02:12;;;;;;;18.15;12.93;;;7.10;92.90;;;;;;5108489;28;20047;-54
2022/12/04 08:04:38;;;;;;;17.75;12.50;;;7.00;92.90;;;;;;5108293;28;20047;-55
2022/12/04 08:07:04;;;;;;;19.25;12.93;;;7.00;93.20;;;;;;5108223;28;20024;-54
2022/12/04 08:09:29;;;;;;;18.10;13.10;;;7.10;92.90;;;;;;5108419;28;20031;-54
2022/12/04 08:11:55;;;;;;;17.63;12.45;;;7.10;92.90;;;;;;5108526;28;20030;-55
2022/12/04 08:14:20;;;;;;;17.95;13.40;;;7.10;92.90;;;;;;5126849;28;20407;-54
2022/12/04 08:16:47;;;;;;;18.15;12.82;;;7.00;92.90;;;;;;5125456;28;20023;-54
2022/12/04 08:19:13;;;;;;;18.15;12.80;;;7.00;92.90;;;;;;5126636;28;20042;-54
2022/12/04 08:21:38;;;;;;;18.67;13.25;;;7.00;92.90;;;;;;5108275;28;20015;-56
2022/12/04 08:24:04;;;;;;;19.48;13.52;;;7.00;92.90;;;;;;5108306;28;20076;-56
2022/12/04 08:26:30;;;;;;;20.25;13.80;;;7.00;92.90;;;;;;5107912;28;20015;-56
2022/12/04 08:28:56;;;;;;;22.95;13.68;;;7.00;92.90;;;;;;5107881;28;20027;-57
2022/12/04 08:31:23;;;;;;;18.70;12.05;;;7.00;92.90;;;;;;5108071;28;20019;-56
2022/12/04 08:33:49;;;;;;;17.20;12.65;;;7.00;92.90;;;;;;5107963;28;20101;-56
2022/12/04 08:36:18;;;;;;;18.10;12.98;;;7.00;92.90;;;;;;5108167;28;20020;-57
2022/12/04 08:38:44;;;;;;;19.40;13.00;;;7.00;92.90;;;;;;5107615;28;20042;-57
2022/12/04 08:41:11;;;;;;;21.15;14.00;;;7.00;92.90;;;;;;5090433;28;20024;-56
2022/12/04 08:43:37;;;;;;;20.25;13.32;;;7.00;92.90;;;;;;5090705;28;20085;-56
2022/12/04 08:46:04;;;;;;;16.70;12.90;;;7.00;92.90;;;;;;5125927;28;20032;-57
2022/12/04 08:48:30;;;;;;;16.60;11.90;;;7.00;92.90;;;;;;5091070;28;20039;-57
2022/12/04 08:50:55;;;;;;;17.50;13.15;;;7.10;92.90;;;;;;5126062;28;20054;-56
2022/12/04 08:53:21;;;;;;;20.00;13.50;;;7.00;92.90;;;;;;5090787;28;20034;-56
2022/12/04 08:55:47;;;;;;;20.33;13.88;;;7.00;92.90;;;;;;5125989;28;20039;-56
2022/12/04 08:58:12;;;;;;;17.55;13.05;;;7.00;92.90;;;;;;5107542;28;20040;-57
2022/12/04 09:00:38;;;;;;;18.40;13.77;;;7.00;92.90;;;;;;5090547;28;20039;-57
2022/12/04 09:03:03;;;;;;;19.35;13.27;;;7.00;92.80;;;;;;5125627;28;20040;-57
2022/12/04 09:05:29;;;;;;;22.58;12.98;;;7.00;92.90;;;;;;5089998;28;20031;-56
2022/12/04 09:07:55;;;;;;;20.77;13.43;;;7.00;92.90;;;;;;5125670;28;20024;-57
2022/12/04 09:10:20;;;;;;;17.67;13.15;;;7.00;92.90;;;;;;5107299;28;20026;-56
2022/12/04 09:12:46;;;;;;;19.58;13.32;;;7.00;92.80;;;;;;5107623;28;20504;-56
2022/12/04 09:15:11;;;;;;;19.70;14.02;;;7.10;93.10;;;;;;5107520;28;20026;-57
2022/12/04 09:17:37;;;;;;;24.85;13.40;;;7.10;92.80;;;;;;5125799;28;20422;-57
2022/12/04 09:20:04;;;;;;;20.70;14.32;;;7.00;92.80;;;;;;5107171;28;20031;-57
2022/12/04 09:22:29;;;;;;;25.30;14.05;;;7.00;92.80;;;;;;5125617;28;20028;-57
2022/12/04 09:24:55;;;;;;;21.40;14.55;;;7.00;92.80;;;;;;5090494;28;20047;-57
2022/12/04 09:27:20;;;;;;;25.75;13.23;;;7.10;92.80;;;;;;5125555;28;20030;-57
2022/12/04 09:29:46;;;;;;;23.90;14.43;;;7.00;93.10;;;;;;5125519;28;20079;-57
2022/12/04 09:32:11;;;;;;;38.13;14.93;;;7.10;92.80;;;;;;5125573;28;20028;-56
2022/12/04 09:34:37;;;;;;;70.03;20.13;;;7.10;92.90;;;;;;5106775;28;20062;-57
2022/12/04 09:37:02;;;;;;;45.35;15.93;;;7.00;93.10;;;;;;5124942;28;20035;-56
2022/12/04 09:39:28;;;;;;;45.78;15.77;;;7.10;93.20;;;;;;5089936;28;20031;-57
2022/12/04 09:42:02;;;;;;;50.80;15.98;;;7.10;93.30;;;;;;5124905;28;20040;-56
2022/12/04 09:44:33;;;;;;;31.48;14.85;;;7.10;93.20;;;;;;5107109;28;20020;-56
2022/12/04 09:47:12;;;;;;;38.58;16.27;;;7.10;93.10;;;;;;5107203;28;20043;-56
2022/12/04 09:49:50;;;;;;;37.92;15.82;;;7.10;93.10;;;;;;5108726;28;20099;-57
2022/12/04 09:52:58;;;;;;;35.50;15.98;;;7.10;93.20;;;;;;5095012;28;20028;-57
2022/12/04 09:55:34;;;;;;;73.50;18.05;;;7.10;93.20;;;;;;5046728;28;20034;-56
2022/12/04 09:58:00;;;;;;;78.32;18.15;;;7.20;93.40;;;;;;5104853;28;20043;-57
2022/12/04 10:00:26;;;;;;;65.90;18.73;;;7.20;93.60;;;;;;5093735;28;20027;-57
2022/12/04 10:02:55;;;;;;;77.10;19.63;;;7.20;93.60;;;;;;5093519;28;20044;-57
2022/12/04 10:05:36;;;;;;;98.85;21.10;;;7.20;93.80;;;;;;5093321;28;20026;-57
2022/12/04 10:08:28;;;;;;;73.03;19.27;;;7.20;93.90;;;;;;5128612;28;20091;-57
2022/12/04 10:11:23;;;;;;;90.35;19.73;;;7.20;94.00;;;;;;5109993;28;20058;-57
2022/12/04 10:14:17;;;;;;;80.55;19.80;;;7.20;94.00;;;;;;5112015;28;20087;-57
2022/12/04 10:16:52;;;;;;;106.80;20.70;;;7.30;94.00;;;;;;5111934;28;20042;-57
2022/12/04 10:19:37;;;;;;;92.70;22.13;;;7.30;94.00;;;;;;5109971;28;20024;-57
2022/12/04 10:22:27;;;;;;;103.83;21.83;;;7.30;94.00;;;;;;5094417;28;20043;-57
2022/12/04 10:25:05;;;;;;;126.82;23.20;;;7.30;94.10;;;;;;5094668;28;20265;-57
2022/12/04 10:27:41;;;;;;;93.68;20.95;;;7.30;94.30;;;;;;5094813;28;20057;-57
2022/12/04 10:30:18;;;;;;;100.63;22.02;;;7.40;94.30;;;;;;5110048;28;20055;-57
2022/12/04 10:32:44;;;;;;;131.52;23.60;;;7.40;94.30;;;;;;5093993;28;20062;-57
2022/12/04 10:35:21;;;;;;;127.70;23.08;;;7.40;94.40;;;;;;5127766;28;20020;-57
2022/12/04 10:37:47;;;;;;;118.30;24.00;;;7.40;94.50;;;;;;5127875;28;20039;-57
2022/12/04 10:40:21;;;;;;;135.40;24.58;;;7.40;94.60;;;;;;5092610;28;20061;-57
2022/12/04 10:42:56;;;;;;;153.60;26.10;;;7.40;94.60;;;;;;5109419;28;20039;-57
2022/12/04 10:45:21;;;;;;;126.17;24.77;;;7.40;94.70;;;;;;5092382;28;20030;-57
2022/12/04 10:47:47;;;;;;;155.45;25.83;;;7.50;94.70;;;;;;5091678;28;20059;-57
2022/12/04 10:50:17;;;;;;;141.02;26.40;;;7.50;94.80;;;;;;5092057;28;20019;-57
2022/12/04 10:52:43;;;;;;;131.63;25.20;;;7.50;94.90;;;;;;5092116;28;20399;-57
2022/12/04 10:55:09;;;;;;;157.18;25.73;;;7.50;95.00;;;;;;5109040;28;20019;-57
2022/12/04 10:57:44;;;;;;;165.93;27.80;;;7.60;95.00;;;;;;5091959;28;20134;-57
2022/12/04 11:00:33;;;;;;;159.63;27.50;;;7.50;95.00;;;;;;5091844;28;20034;-57
2022/12/04 11:03:07;;;;;;;178.13;28.75;;;7.60;95.10;;;;;;5126618;28;20028;-57
2022/12/04 11:05:44;;;;;;;169.77;27.67;;;7.70;95.10;;;;;;5092717;28;20027;-57
2022/12/04 11:08:18;;;;;;;187.80;27.52;;;7.60;95.00;;;;;;5092052;28;20030;-57
2022/12/04 11:10:44;;;;;;;157.68;28.15;;;7.60;94.90;;;;;;5092400;28;20035;-57
2022/12/04 11:13:09;;;;;;;174.90;29.17;;;7.60;95.00;;;;;;5109057;28;20057;-57
2022/12/04 11:15:45;;;;;;;168.05;27.50;;;7.60;95.00;;;;;;5126973;28;20062;-57
2022/12/04 11:18:18;;;;;;;189.63;28.52;;;7.60;95.00;;;;;;5108855;28;20130;-57
2022/12/04 11:21:13;;;;;;;157.70;28.20;;;7.60;95.00;;;;;;5108314;28;20055;-57
2022/12/04 11:23:47;;;;;;;169.27;27.75;;;7.70;95.00;;;;;;5110962;28;20032;-57
2022/12/04 11:26:13;;;;;;;229.77;31.42;;;7.70;95.10;;;;;;5092221;28;20035;-57
2022/12/04 11:28:39;;;;;;;164.65;26.23;;;7.70;95.00;;;;;;5091567;28;20114;-57
2022/12/04 11:31:06;;;;;;;164.45;27.80;;;7.70;94.90;;;;;;5091594;28;20023;-57
2022/12/04 11:33:37;;;;;;;176.20;27.83;;;7.80;94.80;;;;;;5108482;28;20083;-57
2022/12/04 11:36:12;;;;;;;204.75;30.50;;;7.80;95.00;;;;;;5091508;28;20063;-57
2022/12/04 11:38:38;;;;;;;184.73;29.25;;;7.80;94.90;;;;;;5092525;28;20043;-56
2022/12/04 11:41:05;;;;;;;186.88;29.92;;;7.80;94.90;;;;;;5108168;28;20036;-57
2022/12/04 11:43:32;;;;;;;172.40;29.13;;;7.80;95.00;;;;;;5108148;28;20068;-57
2022/12/04 11:46:05;;;;;;;187.93;27.67;;;7.80;95.20;;;;;;5107853;28;20518;-57
2022/12/04 11:48:39;;;;;;;192.70;28.20;;;7.80;95.10;;;;;;5126471;28;20055;-57
2022/12/04 11:51:06;;;;;;;183.38;26.50;;;7.80;95.00;;;;;;5126499;28;20039;-57
2022/12/04 11:53:34;;;;;;;209.73;31.17;;;7.90;95.10;;;;;;5107585;28;20029;-57
2022/12/04 11:56:19;;;;;;;168.65;26.35;;;7.90;95.00;;;;;;5126201;28;20026;-57
2022/12/04 11:58:59;;;;;;;180.95;27.70;;;7.90;95.10;;;;;;5125310;28;20031;-57
2022/12/04 12:01:46;;;;;;;170.00;26.70;;;7.90;95.40;;;;;;5109305;28;20034;-57
2022/12/04 12:04:20;;;;;;;166.40;26.60;;;7.90;95.10;;;;;;5126060;28;20457;-57
2022/12/04 12:07:04;;;;;;;170.70;26.42;;;7.90;95.20;;;;;;5107748;28;20031;-57
2022/12/04 12:09:55;;;;;;;160.13;26.13;;;7.90;95.20;;;;;;5125908;28;20042;-57
2022/12/04 12:12:23;;;;;;;176.90;26.67;;;7.90;95.30;;;;;;5126216;28;20027;-57
2022/12/04 12:14:52;;;;;;;202.25;30.45;;;7.90;95.20;;;;;;5124992;28;20023;-57
2022/12/04 12:17:45;;;;;;;216.40;30.95;;;8.00;94.90;;;;;;5097751;28;20028;-57
2022/12/04 12:20:16;;;;;;;245.77;33.13;;;8.10;94.60;;;;;;5107400;28;20024;-57
2022/12/04 12:22:50;;;;;;;212.70;31.75;;;8.10;94.60;;;;;;5125727;28;20023;-57
2022/12/04 12:25:31;;;;;;;200.43;30.00;;;8.10;94.60;;;;;;5107728;28;20027;-57
2022/12/04 12:28:17;;;;;;;252.85;33.85;;;8.10;94.70;;;;;;5125122;28;20757;-57
2022/12/04 12:30:51;;;;;;;250.93;35.40;;;8.10;94.70;;;;;;5125833;28;20083;-57
2022/12/04 12:33:22;;;;;;;297.10;35.58;;;8.10;94.70;;;;;;5126155;28;20113;-57
2022/12/04 12:36:02;;;;;;;238.90;32.97;;;8.10;94.80;;;;;;5091779;28;20436;-57
2022/12/04 12:38:36;;;;;;;291.20;37.25;;;8.10;94.80;;;;;;5081058;28;20024;-57
2022/12/04 12:41:05;;;;;;;253.77;34.10;;;8.10;94.90;;;;;;5107180;28;20039;-57
2022/12/04 12:43:37;;;;;;;264.88;34.08;;;8.10;94.60;;;;;;5089767;28;20028;-57
2022/12/04 12:46:05;;;;;;;237.45;31.25;;;8.20;94.60;;;;;;5089794;28;20024;-57
2022/12/04 12:48:41;;;;;;;240.68;33.60;;;8.20;94.60;;;;;;5110387;28;20031;-57
2022/12/04 12:51:33;;;;;;;286.58;36.08;;;8.20;94.50;;;;;;5107086;28;20043;-57
2022/12/04 12:54:27;;;;;;;251.02;38.28;;;8.20;94.50;;;;;;5107053;28;20027;-57
2022/12/04 12:57:05;;;;;;;254.73;33.17;;;8.20;94.50;;;;;;5089450;28;20024;-57
2022/12/04 12:59:31;;;;;;;235.02;33.97;;;8.20;94.60;;;;;;5089219;28;20035;-57
2022/12/04 13:02:04;;;;;;;258.30;35.80;;;8.30;94.50;;;;;;5106735;28;20038;-57